createdAt,value
2022-10-17T03:25:33.562Z,22.47
2022-10-17T03:28:01.688Z,22.49
2022-10-17T03:30:32.110Z,22.37
2022-10-17T03:33:01.072Z,22.26
2022-10-17T03:35:28.980Z,22.34
2022-10-17T03:37:58.986Z,22.23
2022-10-17T03:40:29.010Z,22.46
2022-10-17T03:42:56.927Z,22.36
2022-10-17T03:45:24.792Z,22.38
2022-10-17T03:47:53.994Z,22.34
2022-10-17T03:50:21.852Z,22.52
2022-10-17T03:52:50.410Z,22.50
2022-10-17T03:55:19.859Z,22.58
2022-10-17T03:57:48.464Z,22.26
2022-10-17T04:00:19.183Z,22.49
2022-10-17T04:02:54.601Z,22.42
2022-10-17T04:05:22.499Z,22.51
2022-10-17T04:07:50.352Z,22.52
2022-10-17T04:10:24.777Z,22.57
2022-10-17T04:12:52.713Z,22.58
2022-10-17T04:15:20.584Z,22.62
2022-10-17T04:17:49.066Z,22.58
2022-10-17T04:20:17.931Z,22.49
2022-10-17T04:22:46.831Z,22.59
2022-10-17T04:25:15.234Z,22.62
2022-10-17T04:27:48.749Z,22.65
2022-10-17T04:30:17.060Z,22.69
2022-10-17T04:32:45.799Z,22.69
2022-10-17T04:35:23.205Z,22.63
2022-10-17T04:37:58.272Z,22.38
2022-10-17T04:40:26.201Z,22.50
2022-10-17T04:42:56.140Z,22.54
2022-10-17T04:45:32.047Z,22.48
2022-10-17T04:48:03.619Z,22.63
2022-10-17T04:50:31.523Z,22.67
2022-10-17T04:53:38.985Z,22.65
2022-10-17T04:56:10.433Z,22.59
2022-10-17T04:58:41.073Z,22.58
2022-10-17T05:01:11.867Z,22.59
2022-10-17T05:03:42.186Z,22.61
2022-10-17T05:06:12.550Z,22.53
2022-10-17T05:08:41.363Z,22.60
2022-10-17T05:11:17.317Z,22.65
2022-10-17T05:13:51.127Z,22.52
2022-10-17T05:16:19.962Z,22.56
2022-10-17T05:18:52.721Z,22.65
2022-10-17T05:21:23.012Z,22.62
2022-10-17T05:23:51.570Z,22.70
2022-10-17T05:26:19.946Z,22.56
2022-10-17T05:28:49.792Z,22.71
2022-10-17T05:31:20.121Z,22.77
2022-10-17T05:33:48.120Z,22.80
2022-10-17T05:36:16.152Z,22.76
2022-10-17T05:38:44.333Z,22.69
2022-10-17T05:41:12.741Z,22.70
2022-10-17T05:43:40.607Z,22.81
2022-10-17T05:46:10.767Z,22.75
2022-10-17T05:48:39.531Z,22.78
2022-10-17T05:51:09.903Z,22.78
2022-10-17T05:53:39.778Z,22.78
2022-10-17T05:56:13.007Z,22.81
2022-10-17T05:58:51.542Z,22.83
2022-10-17T06:01:32.771Z,22.84
2022-10-17T06:04:01.126Z,22.83
2022-10-17T06:06:29.010Z,22.88
2022-10-17T06:08:57.160Z,22.86
2022-10-17T06:11:30.253Z,22.84
2022-10-17T06:13:58.350Z,22.86
2022-10-17T06:16:27.347Z,22.90
2022-10-17T06:18:56.802Z,22.95
2022-10-17T06:21:27.132Z,22.85
2022-10-17T06:24:06.352Z,22.89
2022-10-17T06:26:37.278Z,22.84
2022-10-17T06:29:07.624Z,22.84
2022-10-17T06:31:40.581Z,22.85
2022-10-17T06:34:10.433Z,22.88
2022-10-17T06:36:40.178Z,22.88
2022-10-17T06:39:09.435Z,22.89
2022-10-17T06:41:42.636Z,22.85
2022-10-17T06:44:10.800Z,22.86
2022-10-17T06:46:53.805Z,22.85
2022-10-17T06:49:25.837Z,22.89
2022-10-17T06:52:10.428Z,22.91
2022-10-17T06:54:50.851Z,22.88
2022-10-17T06:57:32.618Z,22.81
2022-10-17T07:00:22.371Z,22.82
2022-10-17T07:02:55.152Z,22.81
2022-10-17T07:05:26.137Z,22.81
2022-10-17T07:07:53.481Z,22.83
2022-10-17T07:10:21.560Z,22.81
2022-10-17T07:12:49.692Z,22.78
2022-10-17T07:15:19.301Z,22.88
2022-10-17T07:17:49.205Z,22.99
2022-10-17T07:20:19.070Z,22.97
2022-10-17T07:22:52.978Z,22.94
2022-10-17T07:25:22.389Z,22.93
2022-10-17T07:27:57.767Z,23.03
2022-10-17T07:30:25.913Z,23.11
2022-10-17T07:32:59.822Z,23.10
2022-10-17T07:35:27.897Z,23.02
2022-10-17T07:37:57.499Z,23.20
2022-10-17T07:40:25.476Z,23.06
2022-10-17T07:42:53.656Z,23.00
2022-10-17T07:45:21.759Z,22.97
2022-10-17T07:47:49.900Z,22.86
2022-10-17T07:50:17.960Z,22.91
2022-10-17T07:52:45.795Z,22.92
2022-10-17T07:55:15.638Z,22.81
2022-10-17T07:57:42.994Z,22.72
2022-10-17T08:00:11.875Z,23.02
2022-10-17T08:02:42.646Z,22.99
2022-10-17T08:05:10.635Z,22.96
2022-10-17T08:07:38.894Z,22.97
2022-10-17T08:12:42.413Z,23.05
2022-10-17T08:15:12.340Z,23.08
2022-10-17T08:17:43.504Z,23.06
2022-10-17T08:20:12.615Z,23.07
2022-10-17T08:22:40.484Z,23.08
2022-10-17T08:25:09.542Z,23.01
2022-10-17T08:27:37.454Z,22.88
2022-10-17T08:30:25.448Z,22.87
2022-10-17T08:33:42.672Z,22.95
2022-10-17T08:36:13.426Z,22.99
2022-10-17T08:38:43.622Z,23.04
2022-10-17T08:41:22.282Z,23.09
2022-10-17T08:44:22.713Z,23.16
2022-10-17T08:47:13.785Z,22.99
2022-10-17T09:02:01.267Z,22.86
2022-10-17T09:04:49.562Z,22.93
2022-10-17T09:07:30.033Z,22.84
2022-10-17T09:10:07.549Z,22.91
2022-10-17T09:12:49.282Z,22.82
2022-10-17T09:15:40.964Z,22.84
2022-10-17T09:18:27.544Z,22.55
2022-10-17T09:21:18.136Z,22.75
2022-10-17T09:24:09.856Z,22.78
2022-10-17T09:27:26.216Z,22.49
2022-10-17T09:30:44.267Z,22.40
2022-10-17T09:33:53.239Z,22.61
2022-10-17T09:36:24.665Z,22.91
2022-10-17T09:39:48.237Z,23.06
2022-10-17T09:42:55.497Z,23.12
2022-10-17T09:45:32.883Z,23.14
2022-10-17T09:48:09.642Z,23.14
2022-10-17T09:51:14.669Z,23.19
2022-10-17T09:54:21.167Z,23.23
2022-10-17T10:00:06.803Z,23.16
2022-10-17T10:02:44.228Z,23.25
2022-10-17T10:05:28.738Z,23.30
2022-10-17T10:08:06.278Z,23.21
2022-10-17T10:10:34.493Z,23.29
2022-10-17T10:13:32.681Z,23.27
2022-10-17T10:16:23.388Z,23.22
2022-10-17T10:18:52.164Z,23.24
2022-10-17T10:21:21.739Z,23.21
2022-10-17T10:24:18.986Z,23.27
2022-10-17T10:26:50.213Z,23.28
2022-10-17T10:29:29.329Z,23.33
2022-10-17T10:32:17.022Z,23.27
2022-10-17T10:34:48.660Z,23.36
2022-10-17T10:37:20.333Z,23.30
2022-10-17T10:39:51.124Z,23.30
2022-10-17T10:42:27.376Z,23.34
2022-10-17T10:44:59.407Z,23.33
2022-10-17T10:47:29.287Z,23.39
2022-10-17T10:50:20.645Z,23.30
2022-10-17T10:52:56.870Z,23.21
2022-10-17T10:55:30.173Z,23.35
2022-10-17T10:58:04.161Z,23.50
2022-10-17T11:00:35.125Z,23.46
2022-10-17T11:03:12.711Z,23.52
2022-10-17T11:05:46.712Z,23.48
2022-10-17T11:08:24.933Z,23.49
2022-10-17T11:11:08.285Z,23.49
2022-10-17T11:13:46.011Z,23.49
2022-10-17T11:16:28.338Z,23.26
2022-10-17T11:19:03.301Z,23.27
2022-10-17T11:24:23.084Z,23.39
2022-10-17T11:26:57.110Z,23.41
2022-10-17T11:29:29.936Z,23.39
2022-10-17T11:32:01.659Z,23.36
2022-10-17T11:34:33.793Z,23.33
2022-10-17T11:37:05.854Z,23.41
2022-10-17T11:39:42.233Z,23.42
2022-10-17T11:42:15.055Z,23.47
2022-10-17T11:44:44.423Z,23.41
2022-10-17T11:47:22.284Z,23.51
2022-10-17T11:49:53.515Z,23.49
2022-10-17T11:52:51.776Z,23.49
2022-10-17T11:55:22.193Z,23.46
2022-10-17T11:58:01.452Z,23.46
2022-10-17T12:00:51.013Z,23.49
2022-10-17T12:03:32.573Z,23.44
2022-10-17T12:06:09.323Z,23.44
2022-10-17T12:08:44.073Z,23.45
2022-10-17T12:11:20.203Z,23.42
2022-10-17T12:13:55.367Z,23.48
2022-10-17T12:16:51.505Z,23.48
2022-10-17T12:19:27.447Z,23.51
2022-10-17T12:21:58.868Z,23.49
2022-10-17T12:24:37.936Z,23.44
2022-10-17T12:27:38.263Z,23.44
2022-10-17T12:30:07.434Z,23.47
2022-10-17T12:33:03.767Z,23.49
2022-10-17T12:35:28.229Z,23.49
2022-10-17T12:38:15.908Z,23.50
2022-10-17T12:41:04.619Z,23.47
2022-10-17T12:46:50.073Z,23.46
2022-10-17T12:49:48.183Z,23.46
2022-10-17T12:52:26.526Z,23.46
2022-10-17T12:55:14.569Z,23.51
2022-10-17T12:57:54.414Z,23.50
2022-10-17T13:00:28.741Z,23.54
2022-10-17T13:03:05.317Z,23.48
2022-10-17T13:05:41.223Z,23.37
2022-10-17T13:08:17.429Z,23.37
2022-10-17T13:10:51.670Z,23.39
2022-10-17T13:13:27.029Z,23.40
2022-10-17T13:15:56.177Z,23.41
2022-10-17T13:18:26.578Z,23.49
2022-10-17T13:21:03.861Z,23.42
2022-10-17T13:23:35.939Z,23.37
2022-10-17T13:26:18.459Z,23.38
2022-10-17T13:28:47.507Z,23.36
2022-10-17T13:31:31.101Z,23.21
2022-10-17T13:34:05.092Z,23.21
2022-10-17T13:36:35.824Z,23.26
2022-10-17T13:39:12.417Z,23.23
2022-10-17T13:41:42.789Z,23.25
2022-10-17T13:44:14.908Z,23.23
2022-10-17T13:46:44.498Z,23.28
2022-10-17T13:49:21.365Z,23.27
2022-10-17T13:51:55.480Z,23.33
2022-10-17T13:54:47.173Z,23.32
2022-10-17T13:57:21.104Z,23.37
2022-10-17T13:59:51.363Z,23.39
2022-10-17T14:02:22.257Z,23.41
2022-10-17T14:05:18.587Z,23.41
2022-10-17T14:08:10.717Z,23.44
2022-10-17T14:10:43.279Z,23.44
2022-10-17T14:13:21.773Z,23.44
2022-10-17T14:15:52.286Z,23.42
2022-10-17T14:18:25.787Z,23.45
2022-10-17T14:21:32.173Z,23.42
2022-10-17T14:23:46.749Z,23.42
2022-10-17T14:26:17.412Z,23.40
2022-10-17T14:28:48.557Z,23.35
2022-10-17T14:31:23.663Z,23.29
2022-10-17T14:33:53.556Z,23.27
2022-10-17T14:36:30.325Z,22.79
2022-10-17T14:39:01.940Z,23.18
2022-10-17T14:41:47.842Z,23.26
2022-10-17T14:44:21.772Z,23.26
2022-10-17T14:46:55.307Z,23.26
2022-10-17T14:49:32.547Z,23.26
2022-10-17T14:52:24.508Z,23.19
2022-10-17T14:54:56.194Z,23.10
2022-10-17T14:57:27.499Z,23.11
2022-10-17T14:59:56.761Z,23.14
2022-10-17T15:02:26.168Z,23.14
2022-10-17T15:04:55.200Z,23.14
2022-10-17T15:07:23.571Z,23.16
2022-10-17T15:09:54.333Z,23.14
2022-10-17T15:12:25.193Z,23.13
2022-10-17T15:14:54.009Z,23.12
2022-10-17T15:17:25.283Z,23.12
2022-10-17T15:19:54.088Z,23.15
2022-10-17T15:22:22.134Z,23.10
2022-10-17T15:24:50.455Z,23.05
2022-10-17T15:27:22.505Z,23.17
2022-10-17T15:29:51.545Z,23.21
2022-10-17T15:32:19.487Z,23.23
2022-10-17T15:34:47.446Z,23.29
2022-10-17T15:37:20.223Z,23.30
2022-10-17T15:39:50.073Z,23.26
2022-10-17T15:42:17.408Z,23.25
2022-10-17T15:44:47.836Z,23.27
2022-10-17T15:47:22.797Z,23.28
2022-10-17T15:49:50.795Z,23.26
2022-10-17T15:52:19.152Z,23.24
2022-10-17T15:54:48.299Z,23.28
2022-10-17T15:57:19.762Z,23.23
2022-10-17T15:59:51.936Z,23.23
2022-10-17T16:02:21.157Z,23.23
2022-10-17T16:04:50.183Z,23.20
2022-10-17T16:07:18.923Z,23.21
2022-10-17T16:09:47.309Z,23.20
2022-10-17T16:12:18.679Z,23.24
2022-10-17T16:14:46.919Z,23.22
2022-10-17T16:17:17.579Z,23.26
2022-10-17T16:19:46.158Z,23.27
2022-10-17T16:22:22.958Z,23.23
2022-10-17T16:24:51.580Z,23.25
2022-10-17T16:27:19.396Z,23.29
2022-10-17T16:29:48.580Z,23.30
2022-10-17T16:32:20.517Z,23.33
2022-10-17T16:34:48.754Z,23.31
2022-10-17T16:37:17.962Z,23.29
2022-10-17T16:39:46.073Z,23.28
2022-10-17T16:42:13.933Z,23.32
2022-10-17T16:44:42.237Z,23.32
2022-10-17T16:47:10.578Z,23.32
2022-10-17T16:49:42.915Z,23.28
2022-10-17T16:52:13.727Z,23.28
2022-10-17T16:54:41.719Z,23.30
2022-10-17T16:57:09.699Z,23.34
2022-10-17T16:59:38.521Z,23.35
2022-10-17T17:02:07.358Z,23.34
2022-10-17T17:04:48.417Z,23.39
2022-10-17T17:07:16.468Z,23.36
2022-10-17T17:09:44.277Z,23.37
2022-10-17T17:12:12.367Z,23.33
2022-10-17T17:14:40.204Z,23.29
2022-10-17T17:17:15.338Z,23.39
2022-10-17T17:19:54.237Z,23.33
2022-10-17T17:22:22.125Z,23.33
2022-10-17T17:27:22.599Z,23.37
2022-10-17T17:29:50.347Z,23.35
2022-10-17T17:32:18.312Z,23.33
2022-10-17T17:34:46.203Z,23.39
2022-10-17T17:37:15.515Z,23.30
2022-10-17T17:39:43.537Z,23.37
2022-10-17T17:42:11.359Z,23.35
2022-10-17T17:44:39.259Z,23.36
2022-10-17T17:47:07.243Z,23.38
2022-10-17T17:49:35.253Z,23.33
2022-10-17T17:54:40.739Z,23.30
2022-10-17T17:57:08.976Z,23.34
2022-10-17T17:59:38.744Z,23.35
2022-10-17T18:02:06.941Z,23.33
2022-10-17T18:04:34.960Z,23.34
2022-10-17T18:07:02.988Z,23.31
2022-10-17T18:09:30.758Z,23.32
2022-10-17T18:12:00.174Z,23.35
2022-10-17T18:14:28.157Z,23.31
2022-10-17T18:16:56.017Z,23.31
2022-10-17T18:19:23.848Z,23.30
2022-10-17T18:21:51.967Z,23.30
2022-10-17T18:24:19.819Z,23.28
2022-10-17T18:26:47.733Z,23.29
2022-10-17T18:29:17.384Z,23.31
2022-10-17T18:31:44.920Z,23.30
2022-10-17T18:34:12.672Z,23.31
2022-10-17T18:36:40.665Z,23.28
2022-10-17T18:39:08.454Z,23.29
2022-10-17T18:41:36.419Z,23.30
2022-10-17T18:44:04.863Z,23.26
2022-10-17T18:46:36.001Z,23.28
2022-10-17T18:49:03.914Z,23.27
2022-10-17T18:51:31.877Z,23.31
2022-10-17T18:53:59.877Z,23.29
2022-10-17T18:56:27.713Z,23.30
2022-10-17T18:58:56.494Z,23.34
2022-10-17T19:01:26.416Z,23.28
2022-10-17T19:03:57.590Z,23.29
2022-10-17T19:06:27.806Z,23.26
2022-10-17T19:08:55.745Z,23.28
2022-10-17T19:11:25.505Z,23.32
2022-10-17T19:13:54.472Z,23.30
2022-10-17T19:16:23.987Z,23.30
2022-10-17T19:18:51.790Z,23.33
2022-10-17T19:21:22.260Z,23.26
2022-10-17T19:23:52.374Z,23.25
2022-10-17T19:26:20.215Z,23.27
2022-10-17T19:29:05.926Z,23.24
2022-10-17T19:31:35.095Z,23.25
2022-10-17T19:34:09.617Z,23.26
2022-10-17T19:36:39.179Z,23.24
2022-10-17T19:39:13.143Z,23.27
2022-10-17T19:41:41.906Z,23.25
2022-10-17T19:44:10.766Z,23.28
2022-10-17T19:46:39.065Z,23.26
2022-10-17T19:49:07.554Z,23.28
2022-10-17T19:51:35.818Z,23.33
2022-10-17T19:54:07.173Z,23.25
2022-10-17T19:56:35.550Z,23.26
2022-10-17T19:59:06.828Z,23.28
2022-10-17T20:01:38.761Z,23.25
2022-10-17T20:04:11.214Z,23.26
2022-10-17T20:06:40.357Z,23.24
2022-10-17T20:09:14.008Z,23.28
2022-10-17T20:11:44.888Z,23.22
2022-10-17T20:14:12.613Z,23.20
2022-10-17T20:16:40.549Z,23.22
2022-10-17T20:19:10.507Z,23.22
2022-10-17T20:21:38.867Z,23.21
2022-10-17T20:24:12.459Z,23.20
2022-10-17T20:26:42.475Z,23.24
2022-10-17T20:29:13.700Z,23.22
2022-10-17T20:31:43.603Z,23.21
2022-10-17T20:34:12.753Z,23.20
2022-10-17T20:36:41.042Z,23.22
2022-10-17T20:39:12.881Z,23.19
2022-10-17T20:41:41.188Z,23.20
2022-10-17T20:44:09.635Z,23.16
2022-10-17T20:46:44.347Z,23.17
2022-10-17T20:49:18.422Z,23.13
2022-10-17T20:51:46.422Z,23.14
2022-10-17T20:54:15.869Z,23.12
2022-10-17T20:56:43.702Z,23.12
2022-10-17T20:59:14.184Z,23.09
2022-10-17T21:01:42.691Z,23.09
2022-10-17T21:04:40.669Z,23.08
2022-10-17T21:06:59.539Z,23.09
2022-10-17T21:09:28.903Z,23.11
2022-10-17T21:11:56.957Z,23.06
2022-10-17T21:14:28.103Z,23.07
2022-10-17T21:16:57.341Z,23.06
2022-10-17T21:19:26.939Z,23.04
2022-10-17T21:21:54.798Z,23.08
2022-10-17T21:24:22.764Z,23.06
2022-10-17T21:26:52.628Z,23.06
2022-10-17T21:29:20.574Z,23.06
2022-10-17T21:31:48.414Z,23.05
2022-10-17T21:34:18.924Z,23.02
2022-10-17T21:36:47.088Z,23.05
2022-10-17T21:39:15.863Z,23.08
2022-10-17T21:41:44.673Z,23.07
2022-10-17T21:44:17.251Z,23.07
2022-10-17T21:46:46.058Z,23.05
2022-10-17T21:49:15.304Z,23.04
2022-10-17T21:51:43.930Z,23.07
2022-10-17T21:54:12.628Z,23.10
2022-10-17T21:56:40.946Z,23.09
2022-10-17T21:59:09.297Z,23.08
2022-10-17T22:01:41.121Z,23.10
2022-10-17T22:04:13.396Z,23.06
2022-10-17T22:06:43.032Z,23.09
2022-10-17T22:09:14.525Z,23.01
2022-10-17T22:11:47.530Z,23.05
2022-10-17T22:14:16.885Z,23.04
2022-10-17T22:16:47.313Z,23.08
2022-10-17T22:19:18.378Z,23.06
2022-10-17T22:21:46.473Z,23.11
2022-10-17T22:24:16.754Z,23.08
2022-10-17T22:26:45.038Z,23.11
2022-10-17T22:29:13.156Z,23.04
2022-10-17T22:31:41.524Z,23.04
2022-10-17T22:34:13.073Z,22.96
2022-10-17T22:36:40.983Z,23.03
2022-10-17T22:39:09.315Z,23.05
2022-10-17T22:41:37.437Z,23.06
2022-10-17T22:44:08.551Z,23.04
2022-10-17T22:46:36.758Z,23.04
2022-10-17T22:49:04.986Z,23.06
2022-10-17T22:51:34.480Z,23.05
2022-10-17T22:54:02.368Z,23.06
2022-10-17T22:56:30.327Z,23.08
2022-10-17T22:59:00.903Z,23.10
2022-10-17T23:01:28.938Z,23.04
2022-10-17T23:03:59.053Z,23.10
2022-10-17T23:06:27.007Z,23.06
2022-10-17T23:08:56.353Z,23.08
2022-10-17T23:11:24.378Z,23.01
2022-10-17T23:13:52.137Z,23.03
2022-10-17T23:16:20.154Z,23.04
2022-10-17T23:18:47.934Z,23.06
2022-10-17T23:21:16.307Z,23.01
2022-10-17T23:23:44.123Z,22.98
2022-10-17T23:26:15.007Z,23.04
2022-10-17T23:28:45.877Z,22.99
2022-10-17T23:31:16.083Z,22.99
2022-10-17T23:33:44.862Z,23.03
2022-10-17T23:36:14.362Z,22.98
2022-10-17T23:38:42.530Z,23.01
2022-10-17T23:41:10.647Z,23.02
2022-10-17T23:43:40.258Z,23.00
2022-10-17T23:46:08.940Z,23.01
2022-10-17T23:48:38.570Z,23.05
2022-10-17T23:51:09.361Z,23.03
2022-10-17T23:53:37.536Z,23.04
2022-10-17T23:56:06.687Z,23.03
2022-10-17T23:58:34.957Z,23.05
